KTOL/TOL METAR and TAF weather

Enter ICAO airport designator
Station Type Date Time Source
KTOL METAR 2020/09/27 00:52 UTC NOAA

KTOL 270052Z 18006KT 10SM CLR 23/15 A2983 RMK AO2 SLP097 T02280150


Station Type Date Time Source
KTOL Decoded METAR 2020/09/27 00:52 UTC NOAA

TOLEDO EXPRESS AIRPORT, OH, United States (KTOL) 41-35N 083-48W 210M
Sep 26, 2020 - 08:52 PM EDT / 2020.09.27 0052 UTC
Wind: from the S (180 degrees) at 7 MPH (6 KT):0
Visibility: 10 mile(s):0
Sky conditions: clear
Temperature: 73.0 F (22.8 C)
Dew Point: 59.0 F (15.0 C)
Relative Humidity: 61%
Pressure (altimeter): 29.83 in. Hg (1010 hPa)
ob: KTOL 270052Z 18006KT 10SM CLR 23/15 A2983 RMK AO2 SLP097 T02280150
cycle: 1

Station Type Date Time Source
KTOL TAF 2020/09/26 18:27 UTC NOAA

TAF KTOL 261720Z 2618/2718 20011G18KT P6SM SCT040
FM270600 21010KT P6SM OVC100
FM271400 22014G20KT P6SM BKN050

Example: see airport list